sensor_id;sensor_type;location;lat;lon;timestamp;P1;durP1;ratioP1;P2;durP2;ratioP2
12181;SDS011;6154;51.550;12.138;2022-10-23T00:00:49;5.45;;;3.05;;
12181;SDS011;6154;51.550;12.138;2022-10-23T00:03:37;4.62;;;3.12;;
12181;SDS011;6154;51.550;12.138;2022-10-23T00:06:24;6.90;;;3.62;;
12181;SDS011;6154;51.550;12.138;2022-10-23T00:09:12;4.43;;;3.25;;
12181;SDS011;6154;51.550;12.138;2022-10-23T00:12:01;5.10;;;4.00;;
12181;SDS011;6154;51.550;12.138;2022-10-23T00:14:49;8.02;;;4.50;;
12181;SDS011;6154;51.550;12.138;2022-10-23T00:17:36;6.20;;;4.07;;
12181;SDS011;6154;51.550;12.138;2022-10-23T00:20:23;9.00;;;4.05;;
12181;SDS011;6154;51.550;12.138;2022-10-23T00:23:09;7.87;;;3.28;;
12181;SDS011;6154;51.550;12.138;2022-10-23T00:25:57;4.75;;;3.30;;
12181;SDS011;6154;51.550;12.138;2022-10-23T00:28:45;4.45;;;3.28;;
12181;SDS011;6154;51.550;12.138;2022-10-23T00:31:36;5.35;;;3.00;;
12181;SDS011;6154;51.550;12.138;2022-10-23T00:34:23;5.57;;;3.50;;
12181;SDS011;6154;51.550;12.138;2022-10-23T00:37:10;5.65;;;3.95;;
12181;SDS011;6154;51.550;12.138;2022-10-23T00:39:57;4.72;;;3.60;;
12181;SDS011;6154;51.550;12.138;2022-10-23T00:42:44;4.18;;;3.22;;
12181;SDS011;6154;51.550;12.138;2022-10-23T00:45:31;3.97;;;3.42;;
12181;SDS011;6154;51.550;12.138;2022-10-23T00:48:21;5.22;;;3.35;;
12181;SDS011;6154;51.550;12.138;2022-10-23T00:51:09;6.60;;;4.30;;
12181;SDS011;6154;51.550;12.138;2022-10-23T00:53:57;4.55;;;3.47;;
12181;SDS011;6154;51.550;12.138;2022-10-23T00:57:06;7.90;;;3.97;;
12181;SDS011;6154;51.550;12.138;2022-10-23T00:59:57;5.87;;;3.35;;
12181;SDS011;6154;51.550;12.138;2022-10-23T01:02:44;3.83;;;2.85;;
12181;SDS011;6154;51.550;12.138;2022-10-23T01:05:34;6.00;;;3.85;;
12181;SDS011;6154;51.550;12.138;2022-10-23T01:08:29;5.35;;;3.55;;
12181;SDS011;6154;51.550;12.138;2022-10-23T01:11:23;8.05;;;3.58;;
12181;SDS011;6154;51.550;12.138;2022-10-23T01:14:15;4.40;;;3.53;;
12181;SDS011;6154;51.550;12.138;2022-10-23T01:17:11;4.18;;;3.03;;
12181;SDS011;6154;51.550;12.138;2022-10-23T01:20:10;5.25;;;4.12;;
12181;SDS011;6154;51.550;12.138;2022-10-23T01:23:25;6.93;;;3.62;;
12181;SDS011;6154;51.550;12.138;2022-10-23T01:26:30;5.12;;;4.03;;
12181;SDS011;6154;51.550;12.138;2022-10-23T01:29:38;4.35;;;3.58;;
12181;SDS011;6154;51.550;12.138;2022-10-23T01:32:31;12.98;;;3.92;;
12181;SDS011;6154;51.550;12.138;2022-10-23T01:35:23;4.87;;;3.55;;
12181;SDS011;6154;51.550;12.138;2022-10-23T01:38:15;6.70;;;3.70;;
12181;SDS011;6154;51.550;12.138;2022-10-23T01:41:06;7.80;;;3.78;;
12181;SDS011;6154;51.550;12.138;2022-10-23T01:43:58;5.45;;;3.40;;
12181;SDS011;6154;51.550;12.138;2022-10-23T01:46:51;5.47;;;3.90;;
12181;SDS011;6154;51.550;12.138;2022-10-23T01:49:40;8.30;;;3.70;;
12181;SDS011;6154;51.550;12.138;2022-10-23T01:52:29;6.05;;;4.15;;
12181;SDS011;6154;51.550;12.138;2022-10-23T01:55:17;6.18;;;3.83;;
12181;SDS011;6154;51.550;12.138;2022-10-23T01:58:04;6.57;;;3.40;;
12181;SDS011;6154;51.550;12.138;2022-10-23T02:00:53;6.62;;;3.25;;
12181;SDS011;6154;51.550;12.138;2022-10-23T02:03:45;8.43;;;3.97;;
12181;SDS011;6154;51.550;12.138;2022-10-23T02:06:34;5.50;;;3.60;;
12181;SDS011;6154;51.550;12.138;2022-10-23T02:09:21;4.00;;;3.03;;
12181;SDS011;6154;51.550;12.138;2022-10-23T02:12:09;6.20;;;4.10;;
12181;SDS011;6154;51.550;12.138;2022-10-23T02:15:05;6.37;;;4.20;;
12181;SDS011;6154;51.550;12.138;2022-10-23T02:18:01;5.70;;;4.10;;
12181;SDS011;6154;51.550;12.138;2022-10-23T02:20:58;4.97;;;3.80;;
12181;SDS011;6154;51.550;12.138;2022-10-23T02:23:49;5.45;;;3.33;;
12181;SDS011;6154;51.550;12.138;2022-10-23T02:26:41;5.47;;;3.90;;
12181;SDS011;6154;51.550;12.138;2022-10-23T02:29:34;6.85;;;4.22;;
12181;SDS011;6154;51.550;12.138;2022-10-23T02:32:25;6.65;;;3.17;;
12181;SDS011;6154;51.550;12.138;2022-10-23T02:35:14;4.85;;;4.10;;
12181;SDS011;6154;51.550;12.138;2022-10-23T02:41:26;4.68;;;3.37;;
12181;SDS011;6154;51.550;12.138;2022-10-23T02:44:24;4.50;;;3.15;;
12181;SDS011;6154;51.550;12.138;2022-10-23T02:47:22;4.70;;;3.15;;
12181;SDS011;6154;51.550;12.138;2022-10-23T02:50:23;4.03;;;3.00;;
12181;SDS011;6154;51.550;12.138;2022-10-23T02:53:16;6.05;;;3.12;;
12181;SDS011;6154;51.550;12.138;2022-10-23T02:56:11;7.05;;;3.33;;
12181;SDS011;6154;51.550;12.138;2022-10-23T02:59:09;4.93;;;2.62;;
12181;SDS011;6154;51.550;12.138;2022-10-23T03:02:02;4.20;;;3.05;;
12181;SDS011;6154;51.550;12.138;2022-10-23T03:04:57;4.37;;;3.30;;
12181;SDS011;6154;51.550;12.138;2022-10-23T03:07:46;4.25;;;3.40;;
12181;SDS011;6154;51.550;12.138;2022-10-23T03:10:35;6.60;;;3.80;;
12181;SDS011;6154;51.550;12.138;2022-10-23T03:13:24;9.98;;;4.43;;
12181;SDS011;6154;51.550;12.138;2022-10-23T03:16:12;7.57;;;4.45;;
12181;SDS011;6154;51.550;12.138;2022-10-23T03:19:05;4.75;;;3.75;;
12181;SDS011;6154;51.550;12.138;2022-10-23T03:21:53;8.18;;;3.95;;
12181;SDS011;6154;51.550;12.138;2022-10-23T03:24:40;5.60;;;2.97;;
12181;SDS011;6154;51.550;12.138;2022-10-23T03:27:28;6.03;;;3.95;;
12181;SDS011;6154;51.550;12.138;2022-10-23T03:30:17;7.32;;;4.15;;
12181;SDS011;6154;51.550;12.138;2022-10-23T03:33:05;4.65;;;3.55;;
12181;SDS011;6154;51.550;12.138;2022-10-23T03:35:52;6.75;;;3.87;;
12181;SDS011;6154;51.550;12.138;2022-10-23T03:38:40;4.53;;;3.80;;
12181;SDS011;6154;51.550;12.138;2022-10-23T03:41:27;5.12;;;3.92;;
12181;SDS011;6154;51.550;12.138;2022-10-23T03:44:15;5.80;;;3.80;;
12181;SDS011;6154;51.550;12.138;2022-10-23T03:47:03;5.15;;;3.28;;
12181;SDS011;6154;51.550;12.138;2022-10-23T03:49:51;4.55;;;3.20;;
12181;SDS011;6154;51.550;12.138;2022-10-23T03:52:38;5.82;;;3.62;;
12181;SDS011;6154;51.550;12.138;2022-10-23T03:55:26;9.52;;;3.75;;
12181;SDS011;6154;51.550;12.138;2022-10-23T03:58:13;4.55;;;3.42;;
12181;SDS011;6154;51.550;12.138;2022-10-23T04:01:01;5.30;;;3.67;;
12181;SDS011;6154;51.550;12.138;2022-10-23T04:03:49;4.25;;;2.83;;
12181;SDS011;6154;51.550;12.138;2022-10-23T04:06:37;5.00;;;3.40;;
12181;SDS011;6154;51.550;12.138;2022-10-23T04:09:24;5.47;;;3.60;;
12181;SDS011;6154;51.550;12.138;2022-10-23T04:12:11;4.50;;;3.08;;
12181;SDS011;6154;51.550;12.138;2022-10-23T04:14:58;5.75;;;3.20;;
12181;SDS011;6154;51.550;12.138;2022-10-23T04:17:45;3.95;;;2.75;;
12181;SDS011;6154;51.550;12.138;2022-10-23T04:20:33;3.42;;;2.15;;
12181;SDS011;6154;51.550;12.138;2022-10-23T04:23:20;3.45;;;1.98;;
12181;SDS011;6154;51.550;12.138;2022-10-23T04:26:07;2.30;;;2.08;;
12181;SDS011;6154;51.550;12.138;2022-10-23T04:28:54;4.32;;;2.42;;
12181;SDS011;6154;51.550;12.138;2022-10-23T04:31:41;4.18;;;2.70;;
12181;SDS011;6154;51.550;12.138;2022-10-23T04:34:28;7.53;;;3.25;;
12181;SDS011;6154;51.550;12.138;2022-10-23T04:37:17;3.42;;;2.25;;
12181;SDS011;6154;51.550;12.138;2022-10-23T04:40:06;2.53;;;2.12;;
12181;SDS011;6154;51.550;12.138;2022-10-23T04:42:55;2.45;;;1.87;;
12181;SDS011;6154;51.550;12.138;2022-10-23T04:45:42;3.28;;;1.60;;
12181;SDS011;6154;51.550;12.138;2022-10-23T04:48:29;1.95;;;1.70;;
12181;SDS011;6154;51.550;12.138;2022-10-23T04:51:21;2.45;;;1.65;;
12181;SDS011;6154;51.550;12.138;2022-10-23T04:54:10;4.18;;;1.80;;
12181;SDS011;6154;51.550;12.138;2022-10-23T04:56:58;1.80;;;1.52;;
12181;SDS011;6154;51.550;12.138;2022-10-23T04:59:46;3.10;;;1.83;;
12181;SDS011;6154;51.550;12.138;2022-10-23T05:02:35;4.05;;;2.12;;
12181;SDS011;6154;51.550;12.138;2022-10-23T05:05:23;3.92;;;2.30;;
12181;SDS011;6154;51.550;12.138;2022-10-23T05:08:10;3.03;;;1.80;;
12181;SDS011;6154;51.550;12.138;2022-10-23T05:11:04;4.35;;;1.60;;
12181;SDS011;6154;51.550;12.138;2022-10-23T05:13:52;2.58;;;1.77;;
12181;SDS011;6154;51.550;12.138;2022-10-23T05:16:43;6.00;;;2.08;;
12181;SDS011;6154;51.550;12.138;2022-10-23T05:19:38;3.45;;;1.85;;
12181;SDS011;6154;51.550;12.138;2022-10-23T05:22:29;3.33;;;2.03;;
12181;SDS011;6154;51.550;12.138;2022-10-23T05:25:21;5.35;;;1.80;;
12181;SDS011;6154;51.550;12.138;2022-10-23T05:28:09;2.75;;;1.95;;
12181;SDS011;6154;51.550;12.138;2022-10-23T05:30:57;3.87;;;2.40;;
12181;SDS011;6154;51.550;12.138;2022-10-23T05:33:47;4.05;;;2.60;;
12181;SDS011;6154;51.550;12.138;2022-10-23T05:36:36;4.62;;;1.80;;
12181;SDS011;6154;51.550;12.138;2022-10-23T05:39:23;3.72;;;2.20;;
12181;SDS011;6154;51.550;12.138;2022-10-23T05:42:12;4.22;;;2.22;;
12181;SDS011;6154;51.550;12.138;2022-10-23T05:45:01;2.78;;;1.85;;
12181;SDS011;6154;51.550;12.138;2022-10-23T05:47:54;4.47;;;1.87;;
12181;SDS011;6154;51.550;12.138;2022-10-23T05:51:03;4.85;;;2.47;;
12181;SDS011;6154;51.550;12.138;2022-10-23T05:53:51;3.55;;;1.98;;
12181;SDS011;6154;51.550;12.138;2022-10-23T05:56:41;3.25;;;1.85;;
12181;SDS011;6154;51.550;12.138;2022-10-23T05:59:27;2.90;;;1.95;;
12181;SDS011;6154;51.550;12.138;2022-10-23T06:02:16;3.00;;;1.87;;
12181;SDS011;6154;51.550;12.138;2022-10-23T06:05:04;4.03;;;2.33;;
12181;SDS011;6154;51.550;12.138;2022-10-23T06:07:55;4.05;;;2.30;;
12181;SDS011;6154;51.550;12.138;2022-10-23T06:10:43;4.60;;;1.95;;
12181;SDS011;6154;51.550;12.138;2022-10-23T06:13:29;1.98;;;1.70;;
12181;SDS011;6154;51.550;12.138;2022-10-23T06:16:17;3.25;;;2.22;;
12181;SDS011;6154;51.550;12.138;2022-10-23T06:19:09;9.50;;;2.42;;
12181;SDS011;6154;51.550;12.138;2022-10-23T06:21:58;4.15;;;2.47;;
12181;SDS011;6154;51.550;12.138;2022-10-23T06:24:46;3.58;;;2.35;;
12181;SDS011;6154;51.550;12.138;2022-10-23T06:27:33;4.40;;;2.28;;
12181;SDS011;6154;51.550;12.138;2022-10-23T06:30:20;5.78;;;2.53;;
12181;SDS011;6154;51.550;12.138;2022-10-23T06:33:07;3.53;;;2.58;;
12181;SDS011;6154;51.550;12.138;2022-10-23T06:35:56;2.50;;;2.05;;
12181;SDS011;6154;51.550;12.138;2022-10-23T06:38:43;5.50;;;2.62;;
12181;SDS011;6154;51.550;12.138;2022-10-23T06:41:31;3.35;;;2.20;;
12181;SDS011;6154;51.550;12.138;2022-10-23T06:44:18;4.57;;;2.20;;
12181;SDS011;6154;51.550;12.138;2022-10-23T06:47:05;3.17;;;2.12;;
12181;SDS011;6154;51.550;12.138;2022-10-23T06:49:57;3.28;;;2.30;;
12181;SDS011;6154;51.550;12.138;2022-10-23T06:52:45;3.28;;;2.67;;
12181;SDS011;6154;51.550;12.138;2022-10-23T06:55:33;4.70;;;2.70;;
12181;SDS011;6154;51.550;12.138;2022-10-23T06:58:20;2.90;;;2.60;;
12181;SDS011;6154;51.550;12.138;2022-10-23T07:01:10;4.78;;;2.67;;
12181;SDS011;6154;51.550;12.138;2022-10-23T07:03:59;4.00;;;2.45;;
12181;SDS011;6154;51.550;12.138;2022-10-23T07:06:46;3.72;;;2.50;;
12181;SDS011;6154;51.550;12.138;2022-10-23T07:09:36;2.58;;;2.30;;
12181;SDS011;6154;51.550;12.138;2022-10-23T07:12:32;4.05;;;2.12;;
12181;SDS011;6154;51.550;12.138;2022-10-23T07:15:22;2.42;;;1.98;;
12181;SDS011;6154;51.550;12.138;2022-10-23T07:18:09;3.30;;;2.00;;
12181;SDS011;6154;51.550;12.138;2022-10-23T07:21:00;3.03;;;1.77;;
12181;SDS011;6154;51.550;12.138;2022-10-23T07:23:48;3.67;;;2.00;;
12181;SDS011;6154;51.550;12.138;2022-10-23T07:26:37;5.82;;;2.12;;
12181;SDS011;6154;51.550;12.138;2022-10-23T07:29:30;1.62;;;1.50;;
12181;SDS011;6154;51.550;12.138;2022-10-23T07:32:18;4.97;;;1.62;;
12181;SDS011;6154;51.550;12.138;2022-10-23T07:35:09;3.83;;;1.95;;
12181;SDS011;6154;51.550;12.138;2022-10-23T07:38:00;2.87;;;1.40;;
12181;SDS011;6154;51.550;12.138;2022-10-23T07:40:48;2.50;;;1.48;;
12181;SDS011;6154;51.550;12.138;2022-10-23T07:43:36;3.03;;;1.85;;
12181;SDS011;6154;51.550;12.138;2022-10-23T07:46:24;6.28;;;2.33;;
12181;SDS011;6154;51.550;12.138;2022-10-23T07:49:12;2.53;;;1.90;;
12181;SDS011;6154;51.550;12.138;2022-10-23T07:51:59;4.95;;;1.87;;
12181;SDS011;6154;51.550;12.138;2022-10-23T07:54:49;2.30;;;1.90;;
12181;SDS011;6154;51.550;12.138;2022-10-23T07:57:37;3.05;;;1.70;;
12181;SDS011;6154;51.550;12.138;2022-10-23T08:00:26;2.65;;;1.62;;
12181;SDS011;6154;51.550;12.138;2022-10-23T08:03:13;2.33;;;1.52;;
12181;SDS011;6154;51.550;12.138;2022-10-23T08:06:01;3.55;;;1.77;;
12181;SDS011;6154;51.550;12.138;2022-10-23T08:08:48;3.28;;;2.05;;
12181;SDS011;6154;51.550;12.138;2022-10-23T08:11:35;3.90;;;1.85;;
12181;SDS011;6154;51.550;12.138;2022-10-23T08:14:23;2.37;;;1.55;;
12181;SDS011;6154;51.550;12.138;2022-10-23T08:17:12;5.30;;;1.45;;
12181;SDS011;6154;51.550;12.138;2022-10-23T08:20:01;2.05;;;1.55;;
12181;SDS011;6154;51.550;12.138;2022-10-23T08:22:49;3.22;;;1.75;;
12181;SDS011;6154;51.550;12.138;2022-10-23T08:25:39;2.20;;;1.50;;
12181;SDS011;6154;51.550;12.138;2022-10-23T08:28:27;1.92;;;1.70;;
12181;SDS011;6154;51.550;12.138;2022-10-23T08:31:15;6.35;;;1.50;;
12181;SDS011;6154;51.550;12.138;2022-10-23T08:34:06;3.10;;;1.60;;
12181;SDS011;6154;51.550;12.138;2022-10-23T08:36:55;4.07;;;1.50;;
12181;SDS011;6154;51.550;12.138;2022-10-23T08:39:42;1.80;;;1.50;;
12181;SDS011;6154;51.550;12.138;2022-10-23T08:42:29;4.20;;;1.50;;
12181;SDS011;6154;51.550;12.138;2022-10-23T08:45:25;2.72;;;1.40;;
12181;SDS011;6154;51.550;12.138;2022-10-23T08:48:19;3.70;;;1.33;;
12181;SDS011;6154;51.550;12.138;2022-10-23T08:51:17;2.92;;;1.87;;
12181;SDS011;6154;51.550;12.138;2022-10-23T08:54:11;1.62;;;1.20;;
12181;SDS011;6154;51.550;12.138;2022-10-23T08:57:02;2.78;;;1.23;;
12181;SDS011;6154;51.550;12.138;2022-10-23T08:59:56;3.20;;;1.30;;
12181;SDS011;6154;51.550;12.138;2022-10-23T09:02:45;3.33;;;1.40;;
12181;SDS011;6154;51.550;12.138;2022-10-23T09:05:35;1.80;;;1.20;;
12181;SDS011;6154;51.550;12.138;2022-10-23T09:08:42;4.90;;;1.25;;
12181;SDS011;6154;51.550;12.138;2022-10-23T09:11:40;2.45;;;1.50;;
12181;SDS011;6154;51.550;12.138;2022-10-23T09:17:54;2.33;;;1.33;;
12181;SDS011;6154;51.550;12.138;2022-10-23T09:20:44;4.43;;;1.65;;
12181;SDS011;6154;51.550;12.138;2022-10-23T09:23:33;2.87;;;1.50;;
12181;SDS011;6154;51.550;12.138;2022-10-23T09:26:21;4.40;;;1.23;;
12181;SDS011;6154;51.550;12.138;2022-10-23T09:29:13;1.42;;;0.95;;
12181;SDS011;6154;51.550;12.138;2022-10-23T09:32:06;7.80;;;1.50;;
12181;SDS011;6154;51.550;12.138;2022-10-23T09:34:54;6.10;;;1.30;;
12181;SDS011;6154;51.550;12.138;2022-10-23T09:37:44;1.67;;;1.20;;
12181;SDS011;6154;51.550;12.138;2022-10-23T09:40:35;4.03;;;1.10;;
12181;SDS011;6154;51.550;12.138;2022-10-23T09:43:27;2.10;;;1.15;;
12181;SDS011;6154;51.550;12.138;2022-10-23T09:46:18;1.50;;;1.10;;
12181;SDS011;6154;51.550;12.138;2022-10-23T09:49:05;3.72;;;1.30;;
12181;SDS011;6154;51.550;12.138;2022-10-23T09:52:01;4.37;;;1.27;;
12181;SDS011;6154;51.550;12.138;2022-10-23T09:54:54;1.33;;;1.23;;
12181;SDS011;6154;51.550;12.138;2022-10-23T09:57:43;3.25;;;1.10;;
12181;SDS011;6154;51.550;12.138;2022-10-23T10:00:32;1.20;;;1.10;;
12181;SDS011;6154;51.550;12.138;2022-10-23T10:03:21;2.00;;;1.30;;
12181;SDS011;6154;51.550;12.138;2022-10-23T10:06:19;2.97;;;1.17;;
12181;SDS011;6154;51.550;12.138;2022-10-23T10:09:14;1.55;;;1.20;;
12181;SDS011;6154;51.550;12.138;2022-10-23T10:12:12;2.12;;;1.10;;
12181;SDS011;6154;51.550;12.138;2022-10-23T10:15:19;1.98;;;1.20;;
12181;SDS011;6154;51.550;12.138;2022-10-23T10:18:14;1.92;;;1.05;;
12181;SDS011;6154;51.550;12.138;2022-10-23T10:21:11;1.62;;;0.98;;
12181;SDS011;6154;51.550;12.138;2022-10-23T10:24:04;3.85;;;0.93;;
12181;SDS011;6154;51.550;12.138;2022-10-23T10:26:57;2.80;;;0.90;;
12181;SDS011;6154;51.550;12.138;2022-10-23T10:29:54;2.60;;;0.93;;
12181;SDS011;6154;51.550;12.138;2022-10-23T10:32:49;2.53;;;0.90;;
12181;SDS011;6154;51.550;12.138;2022-10-23T10:35:47;1.23;;;0.85;;
12181;SDS011;6154;51.550;12.138;2022-10-23T10:38:43;3.97;;;1.33;;
12181;SDS011;6154;51.550;12.138;2022-10-23T10:41:43;1.02;;;0.70;;
12181;SDS011;6154;51.550;12.138;2022-10-23T10:48:02;2.22;;;1.20;;
12181;SDS011;6154;51.550;12.138;2022-10-23T10:51:09;0.88;;;0.60;;
12181;SDS011;6154;51.550;12.138;2022-10-23T10:54:07;2.10;;;0.85;;
12181;SDS011;6154;51.550;12.138;2022-10-23T10:57:07;2.30;;;1.10;;
12181;SDS011;6154;51.550;12.138;2022-10-23T11:00:00;1.85;;;0.90;;
12181;SDS011;6154;51.550;12.138;2022-10-23T11:02:50;1.48;;;1.20;;
12181;SDS011;6154;51.550;12.138;2022-10-23T11:05:43;1.65;;;1.10;;
12181;SDS011;6154;51.550;12.138;2022-10-23T11:08:37;0.70;;;0.70;;
12181;SDS011;6154;51.550;12.138;2022-10-23T11:11:42;1.23;;;0.98;;
12181;SDS011;6154;51.550;12.138;2022-10-23T11:14:30;2.15;;;0.93;;
12181;SDS011;6154;51.550;12.138;2022-10-23T11:17:19;3.10;;;1.15;;
12181;SDS011;6154;51.550;12.138;2022-10-23T11:20:15;2.05;;;1.10;;
12181;SDS011;6154;51.550;12.138;2022-10-23T11:23:21;1.15;;;0.70;;
12181;SDS011;6154;51.550;12.138;2022-10-23T11:26:24;1.77;;;1.10;;
12181;SDS011;6154;51.550;12.138;2022-10-23T11:32:38;1.58;;;1.08;;
12181;SDS011;6154;51.550;12.138;2022-10-23T11:35:43;2.05;;;1.00;;
12181;SDS011;6154;51.550;12.138;2022-10-23T11:38:38;2.17;;;1.00;;
12181;SDS011;6154;51.550;12.138;2022-10-23T11:41:28;2.05;;;0.93;;
12181;SDS011;6154;51.550;12.138;2022-10-23T11:44:23;1.77;;;1.00;;
12181;SDS011;6154;51.550;12.138;2022-10-23T11:47:30;1.60;;;0.98;;
12181;SDS011;6154;51.550;12.138;2022-10-23T11:50:26;1.17;;;0.88;;
12181;SDS011;6154;51.550;12.138;2022-10-23T11:53:22;2.03;;;0.62;;
12181;SDS011;6154;51.550;12.138;2022-10-23T11:56:25;1.27;;;0.98;;
12181;SDS011;6154;51.550;12.138;2022-10-23T11:59:18;1.08;;;0.75;;
12181;SDS011;6154;51.550;12.138;2022-10-23T12:02:20;1.58;;;0.65;;
12181;SDS011;6154;51.550;12.138;2022-10-23T12:05:24;1.17;;;1.00;;
12181;SDS011;6154;51.550;12.138;2022-10-23T12:08:19;1.27;;;0.85;;
12181;SDS011;6154;51.550;12.138;2022-10-23T12:11:22;0.88;;;0.70;;
12181;SDS011;6154;51.550;12.138;2022-10-23T12:14:26;1.20;;;0.80;;
12181;SDS011;6154;51.550;12.138;2022-10-23T12:17:28;1.92;;;0.90;;
12181;SDS011;6154;51.550;12.138;2022-10-23T12:20:25;1.40;;;0.77;;
12181;SDS011;6154;51.550;12.138;2022-10-23T12:23:24;3.00;;;0.68;;
12181;SDS011;6154;51.550;12.138;2022-10-23T12:26:24;1.00;;;0.82;;
12181;SDS011;6154;51.550;12.138;2022-10-23T12:29:30;2.08;;;0.93;;
12181;SDS011;6154;51.550;12.138;2022-10-23T12:32:30;0.60;;;0.60;;
12181;SDS011;6154;51.550;12.138;2022-10-23T12:35:43;1.58;;;0.60;;
12181;SDS011;6154;51.550;12.138;2022-10-23T12:38:41;1.90;;;0.80;;
12181;SDS011;6154;51.550;12.138;2022-10-23T12:41:30;0.90;;;0.68;;
12181;SDS011;6154;51.550;12.138;2022-10-23T12:44:19;0.75;;;0.70;;
12181;SDS011;6154;51.550;12.138;2022-10-23T12:47:12;2.28;;;0.80;;
12181;SDS011;6154;51.550;12.138;2022-10-23T12:50:13;1.23;;;0.80;;
12181;SDS011;6154;51.550;12.138;2022-10-23T12:53:04;1.00;;;0.60;;
12181;SDS011;6154;51.550;12.138;2022-10-23T12:55:53;2.05;;;0.90;;
12181;SDS011;6154;51.550;12.138;2022-10-23T12:58:46;1.85;;;0.80;;
12181;SDS011;6154;51.550;12.138;2022-10-23T13:01:35;0.57;;;0.50;;
12181;SDS011;6154;51.550;12.138;2022-10-23T13:04:30;2.40;;;1.30;;
12181;SDS011;6154;51.550;12.138;2022-10-23T13:07:19;2.47;;;0.70;;
12181;SDS011;6154;51.550;12.138;2022-10-23T13:10:10;1.35;;;0.73;;
12181;SDS011;6154;51.550;12.138;2022-10-23T13:13:02;0.93;;;0.60;;
12181;SDS011;6154;51.550;12.138;2022-10-23T13:15:51;1.05;;;0.80;;
12181;SDS011;6154;51.550;12.138;2022-10-23T13:18:39;2.12;;;0.70;;
12181;SDS011;6154;51.550;12.138;2022-10-23T13:21:28;1.00;;;0.70;;
12181;SDS011;6154;51.550;12.138;2022-10-23T13:24:17;1.40;;;0.70;;
12181;SDS011;6154;51.550;12.138;2022-10-23T13:27:18;3.22;;;0.85;;
12181;SDS011;6154;51.550;12.138;2022-10-23T13:30:25;1.08;;;0.70;;
12181;SDS011;6154;51.550;12.138;2022-10-23T13:33:17;2.70;;;0.70;;
12181;SDS011;6154;51.550;12.138;2022-10-23T13:36:19;1.25;;;0.70;;
12181;SDS011;6154;51.550;12.138;2022-10-23T13:39:13;1.33;;;0.90;;
12181;SDS011;6154;51.550;12.138;2022-10-23T13:42:09;0.90;;;0.75;;
12181;SDS011;6154;51.550;12.138;2022-10-23T13:44:58;1.00;;;0.80;;
12181;SDS011;6154;51.550;12.138;2022-10-23T13:47:45;1.23;;;0.73;;
12181;SDS011;6154;51.550;12.138;2022-10-23T13:50:33;1.87;;;0.62;;
12181;SDS011;6154;51.550;12.138;2022-10-23T13:53:20;3.42;;;0.55;;
12181;SDS011;6154;51.550;12.138;2022-10-23T13:56:09;0.70;;;0.65;;
12181;SDS011;6154;51.550;12.138;2022-10-23T13:58:58;1.60;;;0.80;;
12181;SDS011;6154;51.550;12.138;2022-10-23T14:01:46;1.48;;;0.77;;
12181;SDS011;6154;51.550;12.138;2022-10-23T14:04:34;1.02;;;0.65;;
12181;SDS011;6154;51.550;12.138;2022-10-23T14:07:22;0.77;;;0.77;;
12181;SDS011;6154;51.550;12.138;2022-10-23T14:10:09;0.98;;;0.73;;
12181;SDS011;6154;51.550;12.138;2022-10-23T14:13:07;1.33;;;0.75;;
12181;SDS011;6154;51.550;12.138;2022-10-23T14:15:57;3.60;;;0.90;;
12181;SDS011;6154;51.550;12.138;2022-10-23T14:18:46;2.30;;;0.82;;
12181;SDS011;6154;51.550;12.138;2022-10-23T14:21:34;0.90;;;0.65;;
12181;SDS011;6154;51.550;12.138;2022-10-23T14:24:21;2.42;;;0.80;;
12181;SDS011;6154;51.550;12.138;2022-10-23T14:27:08;1.05;;;0.60;;
12181;SDS011;6154;51.550;12.138;2022-10-23T14:29:58;1.08;;;0.80;;
12181;SDS011;6154;51.550;12.138;2022-10-23T14:32:45;1.45;;;0.85;;
12181;SDS011;6154;51.550;12.138;2022-10-23T14:35:32;1.10;;;0.70;;
12181;SDS011;6154;51.550;12.138;2022-10-23T14:38:19;3.55;;;1.02;;
12181;SDS011;6154;51.550;12.138;2022-10-23T14:41:10;1.67;;;0.80;;
12181;SDS011;6154;51.550;12.138;2022-10-23T14:43:58;1.95;;;0.70;;
12181;SDS011;6154;51.550;12.138;2022-10-23T14:46:46;2.35;;;0.90;;
12181;SDS011;6154;51.550;12.138;2022-10-23T14:49:33;3.80;;;1.10;;
12181;SDS011;6154;51.550;12.138;2022-10-23T14:52:20;1.10;;;0.82;;
12181;SDS011;6154;51.550;12.138;2022-10-23T14:55:08;2.62;;;1.10;;
12181;SDS011;6154;51.550;12.138;2022-10-23T14:57:54;1.10;;;0.93;;
12181;SDS011;6154;51.550;12.138;2022-10-23T15:00:42;0.65;;;0.60;;
12181;SDS011;6154;51.550;12.138;2022-10-23T15:03:31;1.02;;;0.80;;
12181;SDS011;6154;51.550;12.138;2022-10-23T15:06:18;1.80;;;1.00;;
12181;SDS011;6154;51.550;12.138;2022-10-23T15:09:05;1.05;;;0.85;;
12181;SDS011;6154;51.550;12.138;2022-10-23T15:11:52;1.27;;;0.93;;
12181;SDS011;6154;51.550;12.138;2022-10-23T15:14:39;1.52;;;1.37;;
12181;SDS011;6154;51.550;12.138;2022-10-23T15:17:27;4.20;;;1.30;;
12181;SDS011;6154;51.550;12.138;2022-10-23T15:20:16;4.00;;;1.10;;
12181;SDS011;6154;51.550;12.138;2022-10-23T15:23:06;1.27;;;1.10;;
12181;SDS011;6154;51.550;12.138;2022-10-23T15:25:54;2.42;;;0.80;;
12181;SDS011;6154;51.550;12.138;2022-10-23T15:28:42;1.10;;;0.90;;
12181;SDS011;6154;51.550;12.138;2022-10-23T15:31:41;1.50;;;0.95;;
12181;SDS011;6154;51.550;12.138;2022-10-23T15:34:49;0.88;;;0.73;;
12181;SDS011;6154;51.550;12.138;2022-10-23T15:37:39;1.08;;;0.95;;
12181;SDS011;6154;51.550;12.138;2022-10-23T15:40:28;2.28;;;0.90;;
12181;SDS011;6154;51.550;12.138;2022-10-23T15:43:16;1.12;;;0.95;;
12181;SDS011;6154;51.550;12.138;2022-10-23T15:46:04;1.40;;;1.05;;
12181;SDS011;6154;51.550;12.138;2022-10-23T15:48:51;1.85;;;1.02;;
12181;SDS011;6154;51.550;12.138;2022-10-23T15:51:39;2.87;;;1.10;;
12181;SDS011;6154;51.550;12.138;2022-10-23T15:54:28;1.45;;;0.77;;
12181;SDS011;6154;51.550;12.138;2022-10-23T15:57:17;1.02;;;0.88;;
12181;SDS011;6154;51.550;12.138;2022-10-23T16:00:05;1.30;;;0.93;;
12181;SDS011;6154;51.550;12.138;2022-10-23T16:02:54;1.52;;;1.00;;
12181;SDS011;6154;51.550;12.138;2022-10-23T16:05:41;1.50;;;1.10;;
12181;SDS011;6154;51.550;12.138;2022-10-23T16:08:28;2.37;;;1.05;;
12181;SDS011;6154;51.550;12.138;2022-10-23T16:11:18;3.33;;;1.15;;
12181;SDS011;6154;51.550;12.138;2022-10-23T16:14:07;2.12;;;1.10;;
12181;SDS011;6154;51.550;12.138;2022-10-23T16:16:57;2.45;;;1.35;;
12181;SDS011;6154;51.550;12.138;2022-10-23T16:19:45;3.58;;;1.27;;
12181;SDS011;6154;51.550;12.138;2022-10-23T16:22:32;1.23;;;0.90;;
12181;SDS011;6154;51.550;12.138;2022-10-23T16:25:19;1.17;;;1.00;;
12181;SDS011;6154;51.550;12.138;2022-10-23T16:28:08;1.23;;;1.00;;
12181;SDS011;6154;51.550;12.138;2022-10-23T16:30:55;4.62;;;1.23;;
12181;SDS011;6154;51.550;12.138;2022-10-23T16:33:43;2.55;;;1.27;;
12181;SDS011;6154;51.550;12.138;2022-10-23T16:36:31;2.58;;;1.15;;
12181;SDS011;6154;51.550;12.138;2022-10-23T16:39:20;1.27;;;1.08;;
12181;SDS011;6154;51.550;12.138;2022-10-23T16:42:27;1.80;;;1.20;;
12181;SDS011;6154;51.550;12.138;2022-10-23T16:45:19;2.03;;;1.42;;
12181;SDS011;6154;51.550;12.138;2022-10-23T16:48:06;1.25;;;1.00;;
12181;SDS011;6154;51.550;12.138;2022-10-23T16:50:54;2.08;;;1.37;;
12181;SDS011;6154;51.550;12.138;2022-10-23T16:53:42;3.00;;;0.95;;
12181;SDS011;6154;51.550;12.138;2022-10-23T16:56:30;1.70;;;1.10;;
12181;SDS011;6154;51.550;12.138;2022-10-23T16:59:20;3.25;;;1.40;;
12181;SDS011;6154;51.550;12.138;2022-10-23T17:02:09;2.65;;;1.25;;
12181;SDS011;6154;51.550;12.138;2022-10-23T17:04:57;3.83;;;1.73;;
12181;SDS011;6154;51.550;12.138;2022-10-23T17:07:45;5.35;;;1.87;;
12181;SDS011;6154;51.550;12.138;2022-10-23T17:10:32;1.77;;;1.55;;
12181;SDS011;6154;51.550;12.138;2022-10-23T17:13:19;2.22;;;1.65;;
12181;SDS011;6154;51.550;12.138;2022-10-23T17:16:07;1.37;;;1.20;;
12181;SDS011;6154;51.550;12.138;2022-10-23T17:18:57;2.30;;;1.50;;
12181;SDS011;6154;51.550;12.138;2022-10-23T17:21:45;2.05;;;1.25;;
12181;SDS011;6154;51.550;12.138;2022-10-23T17:24:33;2.20;;;1.60;;